sensor_id;sensor_type;location;lat;lon;timestamp;pressure;altitude;pressure_sealevel;temperature;humidity
43161;BME280;40968;52.342;5.528;2023-07-13T00:01:49;101326.84;;;19.08;59.19
43161;BME280;40968;52.342;5.528;2023-07-13T00:04:16;101326.50;;;19.11;58.98
43161;BME280;40968;52.342;5.528;2023-07-13T00:06:44;101253.47;;;18.64;59.29
43161;BME280;40968;52.342;5.528;2023-07-13T00:09:11;101334.66;;;19.11;59.46
43161;BME280;40968;52.342;5.528;2023-07-13T00:11:39;101259.22;;;18.61;59.41
43161;BME280;40968;52.342;5.528;2023-07-13T00:14:08;101337.00;;;19.06;59.46
43161;BME280;40968;52.342;5.528;2023-07-13T00:16:36;101336.00;;;19.07;59.76
43161;BME280;40968;52.342;5.528;2023-07-13T00:19:04;101334.59;;;19.03;59.69
43161;BME280;40968;52.342;5.528;2023-07-13T00:21:31;101265.97;;;18.56;60.04
43161;BME280;40968;52.342;5.528;2023-07-13T00:23:58;101286.75;;;18.66;60.00
43161;BME280;40968;52.342;5.528;2023-07-13T00:26:26;101155.59;;;17.85;59.98
43161;BME280;40968;52.342;5.528;2023-07-13T00:28:53;101294.97;;;18.74;60.05
43161;BME280;40968;52.342;5.528;2023-07-13T00:31:23;101339.09;;;18.94;60.17
43161;BME280;40968;52.342;5.528;2023-07-13T00:33:50;101303.44;;;18.71;60.69
43161;BME280;40968;52.342;5.528;2023-07-13T00:36:17;101344.69;;;18.93;60.35
43161;BME280;40968;52.342;5.528;2023-07-13T00:38:44;101338.72;;;18.89;60.52
43161;BME280;40968;52.342;5.528;2023-07-13T00:41:11;101280.16;;;18.50;60.41
43161;BME280;40968;52.342;5.528;2023-07-13T00:43:38;101298.72;;;18.55;60.98
43161;BME280;40968;52.342;5.528;2023-07-13T00:46:24;101188.56;;;17.80;60.98
43161;BME280;40968;52.342;5.528;2023-07-13T00:48:51;101340.13;;;18.75;61.21
43161;BME280;40968;52.342;5.528;2023-07-13T00:51:25;101339.41;;;18.73;61.43
43161;BME280;40968;52.342;5.528;2023-07-13T00:53:56;101324.81;;;18.74;61.81
43161;BME280;40968;52.342;5.528;2023-07-13T00:56:25;101181.84;;;17.84;61.80
43161;BME280;40968;52.342;5.528;2023-07-13T00:58:53;101289.63;;;18.46;62.10
43161;BME280;40968;52.342;5.528;2023-07-13T01:01:20;101288.00;;;18.35;62.04
43161;BME280;40968;52.342;5.528;2023-07-13T01:03:49;101334.91;;;18.64;62.20
43161;BME280;40968;52.342;5.528;2023-07-13T01:06:15;101093.59;;;17.08;62.17
43161;BME280;40968;52.342;5.528;2023-07-13T01:08:43;101305.44;;;18.33;62.57
43161;BME280;40968;52.342;5.528;2023-07-13T01:11:10;101290.38;;;18.20;62.72
43161;BME280;40968;52.342;5.528;2023-07-13T01:13:37;101329.06;;;18.40;62.78
43161;BME280;40968;52.342;5.528;2023-07-13T01:16:11;101340.25;;;18.37;63.16
43161;BME280;40968;52.342;5.528;2023-07-13T01:18:39;101249.22;;;17.79;63.35
43161;BME280;40968;52.342;5.528;2023-07-13T01:21:07;101273.41;;;17.90;63.42
43161;BME280;40968;52.342;5.528;2023-07-13T01:23:34;101341.47;;;18.25;63.77
43161;BME280;40968;52.342;5.528;2023-07-13T01:26:01;101338.63;;;18.27;63.74
43161;BME280;40968;52.342;5.528;2023-07-13T01:28:29;101308.41;;;18.12;63.80
43161;BME280;40968;52.342;5.528;2023-07-13T01:30:58;101278.31;;;17.87;63.72
43161;BME280;40968;52.342;5.528;2023-07-13T01:33:25;101344.03;;;18.27;63.72
43161;BME280;40968;52.342;5.528;2023-07-13T01:35:52;101339.78;;;18.24;63.71
43161;BME280;40968;52.342;5.528;2023-07-13T01:38:22;101258.41;;;17.68;63.65
43161;BME280;40968;52.342;5.528;2023-07-13T01:40:49;101339.81;;;18.14;63.71
43161;BME280;40968;52.342;5.528;2023-07-13T01:43:16;101344.84;;;18.09;64.01
43161;BME280;40968;52.342;5.528;2023-07-13T01:45:43;101313.00;;;17.83;64.03
43161;BME280;40968;52.342;5.528;2023-07-13T01:48:10;101351.47;;;17.97;64.09
43161;BME280;40968;52.342;5.528;2023-07-13T01:50:37;101352.78;;;17.93;64.22
43161;BME280;40968;52.342;5.528;2023-07-13T01:53:04;101337.66;;;17.80;64.13
43161;BME280;40968;52.342;5.528;2023-07-13T01:55:33;101351.63;;;17.85;64.12
43161;BME280;40968;52.342;5.528;2023-07-13T01:58:00;101348.22;;;17.83;64.38
43161;BME280;40968;52.342;5.528;2023-07-13T02:00:26;101243.81;;;17.14;64.06
43161;BME280;40968;52.342;5.528;2023-07-13T02:02:53;101346.09;;;17.77;64.48
43161;BME280;40968;52.342;5.528;2023-07-13T02:05:20;101340.59;;;17.69;64.40
43161;BME280;40968;52.342;5.528;2023-07-13T02:07:47;101295.47;;;17.40;64.38
43161;BME280;40968;52.342;5.528;2023-07-13T02:10:14;101347.84;;;17.68;64.33
43161;BME280;40968;52.342;5.528;2023-07-13T02:12:44;101128.31;;;16.28;64.44
43161;BME280;40968;52.342;5.528;2023-07-13T02:15:11;101317.00;;;17.42;64.49
43161;BME280;40968;52.342;5.528;2023-07-13T02:17:38;101311.00;;;17.38;64.44
43161;BME280;40968;52.342;5.528;2023-07-13T02:20:06;101352.16;;;17.61;64.73
43161;BME280;40968;52.342;5.528;2023-07-13T02:22:33;101341.78;;;17.47;64.89
43161;BME280;40968;52.342;5.528;2023-07-13T02:25:00;101355.34;;;17.47;65.03
43161;BME280;40968;52.342;5.528;2023-07-13T02:27:27;101267.50;;;16.82;65.33
43161;BME280;40968;52.342;5.528;2023-07-13T02:29:55;101356.66;;;17.33;65.65
43161;BME280;40968;52.342;5.528;2023-07-13T02:32:22;101351.84;;;17.27;65.58
43161;BME280;40968;52.342;5.528;2023-07-13T02:34:50;101361.66;;;17.28;65.90
43161;BME280;40968;52.342;5.528;2023-07-13T02:37:17;101362.94;;;17.23;65.92
43161;BME280;40968;52.342;5.528;2023-07-13T02:39:44;101320.38;;;16.96;66.06
43161;BME280;40968;52.342;5.528;2023-07-13T02:42:10;101295.72;;;16.80;65.98
43161;BME280;40968;52.342;5.528;2023-07-13T02:44:37;101361.09;;;17.14;66.46
43161;BME280;40968;52.342;5.528;2023-07-13T02:47:06;101194.63;;;16.12;66.40
43161;BME280;40968;52.342;5.528;2023-07-13T02:49:32;101221.41;;;16.25;66.41
43161;BME280;40968;52.342;5.528;2023-07-13T02:51:59;101295.84;;;16.68;66.59
43161;BME280;40968;52.342;5.528;2023-07-13T02:54:26;101329.75;;;16.82;66.75
43161;BME280;40968;52.342;5.528;2023-07-13T02:56:53;101371.81;;;17.06;66.96
43161;BME280;40968;52.342;5.528;2023-07-13T02:59:20;101371.22;;;17.02;67.04
43161;BME280;40968;52.342;5.528;2023-07-13T03:01:46;101292.13;;;16.30;67.26
43161;BME280;40968;52.342;5.528;2023-07-13T03:04:15;101367.53;;;16.94;67.52
43161;BME280;40968;52.342;5.528;2023-07-13T03:06:45;101313.25;;;16.56;67.68
43161;BME280;40968;52.342;5.528;2023-07-13T03:09:12;101294.28;;;16.46;67.58
43161;BME280;40968;52.342;5.528;2023-07-13T03:11:39;101319.91;;;16.52;67.75
43161;BME280;40968;52.342;5.528;2023-07-13T03:14:07;101341.00;;;16.68;67.76
43161;BME280;40968;52.342;5.528;2023-07-13T03:16:34;101206.25;;;15.83;67.96
43161;BME280;40968;52.342;5.528;2023-07-13T03:19:02;101380.91;;;16.85;67.94
43161;BME280;40968;52.342;5.528;2023-07-13T03:21:30;101369.22;;;16.85;68.24
43161;BME280;40968;52.342;5.528;2023-07-13T03:23:57;101386.59;;;16.82;68.23
43161;BME280;40968;52.342;5.528;2023-07-13T03:26:23;101374.34;;;16.78;68.27
43161;BME280;40968;52.342;5.528;2023-07-13T03:28:50;101284.00;;;16.20;68.46
43161;BME280;40968;52.342;5.528;2023-07-13T03:31:19;101216.78;;;15.86;68.40
43161;BME280;40968;52.342;5.528;2023-07-13T03:33:46;101373.94;;;16.73;68.41
43161;BME280;40968;52.342;5.528;2023-07-13T03:36:16;101390.56;;;16.68;68.54
43161;BME280;40968;52.342;5.528;2023-07-13T03:38:45;101383.59;;;16.66;69.03
43161;BME280;40968;52.342;5.528;2023-07-13T03:41:12;101390.28;;;16.62;68.74
43161;BME280;40968;52.342;5.528;2023-07-13T03:43:39;101399.38;;;16.61;68.86
43161;BME280;40968;52.342;5.528;2023-07-13T03:46:05;101351.50;;;16.32;68.92
43161;BME280;40968;52.342;5.528;2023-07-13T03:48:32;101407.94;;;16.56;69.08
43161;BME280;40968;52.342;5.528;2023-07-13T03:50:59;101408.06;;;16.54;69.13
43161;BME280;40968;52.342;5.528;2023-07-13T03:53:26;101403.06;;;16.50;69.27
43161;BME280;40968;52.342;5.528;2023-07-13T03:55:54;101415.03;;;16.47;69.46
43161;BME280;40968;52.342;5.528;2023-07-13T03:58:30;101412.63;;;16.44;69.52
43161;BME280;40968;52.342;5.528;2023-07-13T04:00:58;101393.78;;;16.33;69.68
43161;BME280;40968;52.342;5.528;2023-07-13T04:03:26;101177.53;;;15.01;69.96
43161;BME280;40968;52.342;5.528;2023-07-13T04:05:53;101364.25;;;16.10;70.29
43161;BME280;40968;52.342;5.528;2023-07-13T04:08:20;101373.38;;;16.09;70.37
43161;BME280;40968;52.342;5.528;2023-07-13T04:10:47;101352.25;;;15.93;70.56
43161;BME280;40968;52.342;5.528;2023-07-13T04:13:15;101343.09;;;15.84;70.81
43161;BME280;40968;52.342;5.528;2023-07-13T04:15:42;101414.69;;;16.31;70.84
43161;BME280;40968;52.342;5.528;2023-07-13T04:18:08;101421.81;;;16.32;71.13
43161;BME280;40968;52.342;5.528;2023-07-13T04:20:35;101420.09;;;16.31;71.18
43161;BME280;40968;52.342;5.528;2023-07-13T04:23:02;101434.63;;;16.30;71.26
43161;BME280;40968;52.342;5.528;2023-07-13T04:25:29;101357.47;;;15.85;71.44
43161;BME280;40968;52.342;5.528;2023-07-13T04:27:55;101426.63;;;16.28;71.63
43161;BME280;40968;52.342;5.528;2023-07-13T04:30:23;101429.22;;;16.30;71.53
43161;BME280;40968;52.342;5.528;2023-07-13T04:32:51;101389.84;;;16.06;71.54
43161;BME280;40968;52.342;5.528;2023-07-13T04:35:18;101392.69;;;16.04;71.60
43161;BME280;40968;52.342;5.528;2023-07-13T04:37:46;101305.69;;;15.58;71.55
43161;BME280;40968;52.342;5.528;2023-07-13T04:40:15;101433.91;;;16.28;71.68
43161;BME280;40968;52.342;5.528;2023-07-13T04:42:42;101394.09;;;15.99;71.84
43161;BME280;40968;52.342;5.528;2023-07-13T04:45:09;101443.28;;;16.23;72.03
43161;BME280;40968;52.342;5.528;2023-07-13T04:47:37;101393.81;;;16.02;71.91
43161;BME280;40968;52.342;5.528;2023-07-13T04:50:05;101362.16;;;15.83;71.88
43161;BME280;40968;52.342;5.528;2023-07-13T04:52:32;101029.75;;;13.79;71.67
43161;BME280;40968;52.342;5.528;2023-07-13T04:54:59;101438.47;;;16.27;71.98
43161;BME280;40968;52.342;5.528;2023-07-13T04:57:26;101386.53;;;15.93;72.05
43161;BME280;40968;52.342;5.528;2023-07-13T04:59:53;101434.63;;;16.30;72.36
43161;BME280;40968;52.342;5.528;2023-07-13T05:02:20;101294.81;;;15.39;72.28
43161;BME280;40968;52.342;5.528;2023-07-13T05:04:49;101352.09;;;15.64;72.72
43161;BME280;40968;52.342;5.528;2023-07-13T05:07:16;101421.75;;;16.12;72.73
43161;BME280;40968;52.342;5.528;2023-07-13T05:09:42;101452.31;;;16.34;73.03
43161;BME280;40968;52.342;5.528;2023-07-13T05:12:10;101287.97;;;15.35;73.06
43161;BME280;40968;52.342;5.528;2023-07-13T05:14:37;101349.97;;;15.67;73.33
43161;BME280;40968;52.342;5.528;2023-07-13T05:17:04;101459.59;;;16.43;73.36
43161;BME280;40968;52.342;5.528;2023-07-13T05:19:31;101464.44;;;16.49;73.33
43161;BME280;40968;52.342;5.528;2023-07-13T05:22:00;101320.47;;;15.54;73.22
43161;BME280;40968;52.342;5.528;2023-07-13T05:24:28;101418.13;;;16.33;73.38
43161;BME280;40968;52.342;5.528;2023-07-13T05:26:55;101429.53;;;16.46;73.54
43161;BME280;40968;52.342;5.528;2023-07-13T05:29:22;101406.03;;;16.37;73.65
43161;BME280;40968;52.342;5.528;2023-07-13T05:31:49;101437.28;;;16.61;73.58
43161;BME280;40968;52.342;5.528;2023-07-13T05:34:16;101477.34;;;16.86;73.76
43161;BME280;40968;52.342;5.528;2023-07-13T05:36:43;101476.13;;;16.90;73.77
43161;BME280;40968;52.342;5.528;2023-07-13T05:39:11;101293.72;;;15.82;73.68
43161;BME280;40968;52.342;5.528;2023-07-13T05:41:38;101428.16;;;16.62;73.66
43161;BME280;40968;52.342;5.528;2023-07-13T05:44:05;101484.66;;;16.96;73.74
43161;BME280;40968;52.342;5.528;2023-07-13T05:46:32;101478.25;;;16.97;73.98
43161;BME280;40968;52.342;5.528;2023-07-13T05:48:59;101482.66;;;16.98;74.12
43161;BME280;40968;52.342;5.528;2023-07-13T05:51:26;101452.41;;;16.83;74.18
43161;BME280;40968;52.342;5.528;2023-07-13T05:53:53;101456.88;;;16.94;74.10
43161;BME280;40968;52.342;5.528;2023-07-13T05:56:21;101491.66;;;17.08;74.13
43161;BME280;40968;52.342;5.528;2023-07-13T05:58:48;101417.63;;;16.68;74.20
43161;BME280;40968;52.342;5.528;2023-07-13T06:01:15;101448.75;;;16.94;74.34
43161;BME280;40968;52.342;5.528;2023-07-13T06:03:43;101497.66;;;17.31;74.09
43161;BME280;40968;52.342;5.528;2023-07-13T06:06:10;101454.75;;;17.07;74.29
43161;BME280;40968;52.342;5.528;2023-07-13T06:08:37;101494.94;;;17.51;73.77
43161;BME280;40968;52.342;5.528;2023-07-13T06:11:05;101415.28;;;17.04;73.37
43161;BME280;40968;52.342;5.528;2023-07-13T06:13:34;101456.03;;;17.32;73.25
43161;BME280;40968;52.342;5.528;2023-07-13T06:16:01;101310.50;;;16.46;73.21
43161;BME280;40968;52.342;5.528;2023-07-13T06:18:29;101500.34;;;17.61;73.29
43161;BME280;40968;52.342;5.528;2023-07-13T06:20:56;101481.69;;;17.48;73.25
43161;BME280;40968;52.342;5.528;2023-07-13T06:23:24;101486.69;;;17.52;73.38
43161;BME280;40968;52.342;5.528;2023-07-13T06:25:51;101424.81;;;17.18;73.18
43161;BME280;40968;52.342;5.528;2023-07-13T06:28:18;101499.94;;;17.75;73.30
43161;BME280;40968;52.342;5.528;2023-07-13T06:30:47;101409.28;;;17.20;73.13
43161;BME280;40968;52.342;5.528;2023-07-13T06:33:14;101464.41;;;17.49;73.13
43161;BME280;40968;52.342;5.528;2023-07-13T06:35:40;101367.53;;;17.03;72.84
43161;BME280;40968;52.342;5.528;2023-07-13T06:38:07;101493.34;;;17.87;72.81
43161;BME280;40968;52.342;5.528;2023-07-13T06:40:34;101473.09;;;17.82;72.67
43161;BME280;40968;52.342;5.528;2023-07-13T06:43:01;101523.97;;;18.17;72.43
43161;BME280;40968;52.342;5.528;2023-07-13T06:45:28;101517.09;;;18.23;72.17
43161;BME280;40968;52.342;5.528;2023-07-13T06:47:56;101515.66;;;18.29;71.88
43161;BME280;40968;52.342;5.528;2023-07-13T06:50:23;101500.09;;;18.31;71.63
43161;BME280;40968;52.342;5.528;2023-07-13T06:52:49;101518.59;;;18.45;71.53
43161;BME280;40968;52.342;5.528;2023-07-13T06:55:16;101515.28;;;18.51;71.43
43161;BME280;40968;52.342;5.528;2023-07-13T06:57:43;101523.38;;;18.61;71.08
43161;BME280;40968;52.342;5.528;2023-07-13T07:00:11;101518.91;;;18.70;70.80
43161;BME280;40968;52.342;5.528;2023-07-13T07:02:38;101485.69;;;18.58;69.84
43161;BME280;40968;52.342;5.528;2023-07-13T07:05:06;101526.84;;;18.81;69.92
43161;BME280;40968;52.342;5.528;2023-07-13T07:07:33;101497.19;;;18.70;69.23
43161;BME280;40968;52.342;5.528;2023-07-13T07:10:00;101336.75;;;17.62;68.97
43161;BME280;40968;52.342;5.528;2023-07-13T07:12:28;101532.81;;;18.95;69.07
43161;BME280;40968;52.342;5.528;2023-07-13T07:14:55;101526.78;;;19.01;68.71
43161;BME280;40968;52.342;5.528;2023-07-13T07:17:23;101529.56;;;19.09;68.33
43161;BME280;40968;52.342;5.528;2023-07-13T07:19:50;101469.84;;;18.81;67.92
43161;BME280;40968;52.342;5.528;2023-07-13T07:22:20;101526.00;;;19.27;68.14
43161;BME280;40968;52.342;5.528;2023-07-13T07:24:47;101492.09;;;19.13;67.37
43161;BME280;40968;52.342;5.528;2023-07-13T07:27:14;101484.56;;;19.25;67.32
43161;BME280;40968;52.342;5.528;2023-07-13T07:29:41;101475.75;;;19.31;67.27
43161;BME280;40968;52.342;5.528;2023-07-13T07:32:08;101449.91;;;19.27;66.75
43161;BME280;40968;52.342;5.528;2023-07-13T07:34:34;101507.34;;;19.68;66.64
43161;BME280;40968;52.342;5.528;2023-07-13T07:37:02;101424.56;;;19.00;67.62
43161;BME280;40968;52.342;5.528;2023-07-13T07:39:30;101501.09;;;19.31;69.86
43161;BME280;40968;52.342;5.528;2023-07-13T07:41:57;101537.41;;;19.30;70.48
43161;BME280;40968;52.342;5.528;2023-07-13T07:44:24;101550.97;;;19.12;71.33
43161;BME280;40968;52.342;5.528;2023-07-13T07:46:52;101530.25;;;18.83;72.13
43161;BME280;40968;52.342;5.528;2023-07-13T07:49:19;101488.75;;;18.45;71.10
43161;BME280;40968;52.342;5.528;2023-07-13T07:51:46;101390.84;;;17.53;71.51
43161;BME280;40968;52.342;5.528;2023-07-13T07:54:13;101418.94;;;17.52;71.87
43161;BME280;40968;52.342;5.528;2023-07-13T07:56:41;101424.75;;;17.57;72.47
43161;BME280;40968;52.342;5.528;2023-07-13T07:59:08;101542.09;;;18.17;70.89
43161;BME280;40968;52.342;5.528;2023-07-13T08:01:35;101543.44;;;18.03;69.42
43161;BME280;40968;52.342;5.528;2023-07-13T08:04:02;101554.84;;;18.06;69.31
43161;BME280;40968;52.342;5.528;2023-07-13T08:06:29;101559.41;;;18.06;69.81
43161;BME280;40968;52.342;5.528;2023-07-13T08:08:55;101560.81;;;18.10;70.68
43161;BME280;40968;52.342;5.528;2023-07-13T08:11:22;101322.19;;;16.76;70.71
43161;BME280;40968;52.342;5.528;2023-07-13T08:13:51;101500.31;;;17.90;69.69
43161;BME280;40968;52.342;5.528;2023-07-13T08:16:17;101332.75;;;16.99;69.12
43161;BME280;40968;52.342;5.528;2023-07-13T08:18:44;101537.09;;;18.22;67.12
43161;BME280;40968;52.342;5.528;2023-07-13T08:21:11;101519.06;;;18.31;66.25
43161;BME280;40968;52.342;5.528;2023-07-13T08:23:38;101519.78;;;18.33;65.83
43161;BME280;40968;52.342;5.528;2023-07-13T08:26:05;101555.50;;;18.66;65.08
43161;BME280;40968;52.342;5.528;2023-07-13T08:28:33;101563.16;;;18.80;65.56
43161;BME280;40968;52.342;5.528;2023-07-13T08:31:02;101492.00;;;18.49;65.61
43161;BME280;40968;52.342;5.528;2023-07-13T08:33:28;101554.31;;;19.06;66.18
43161;BME280;40968;52.342;5.528;2023-07-13T08:35:55;101486.41;;;18.78;65.84
43161;BME280;40968;52.342;5.528;2023-07-13T08:38:22;101490.53;;;18.82;65.33
43161;BME280;40968;52.342;5.528;2023-07-13T08:40:52;101498.81;;;18.91;65.37
43161;BME280;40968;52.342;5.528;2023-07-13T08:43:24;101493.38;;;18.91;65.94
43161;BME280;40968;52.342;5.528;2023-07-13T08:45:55;101491.34;;;18.93;66.53
43161;BME280;40968;52.342;5.528;2023-07-13T08:48:26;101517.69;;;19.28;66.22
43161;BME280;40968;52.342;5.528;2023-07-13T08:50:59;101554.19;;;19.62;66.61
43161;BME280;40968;52.342;5.528;2023-07-13T08:53:34;101508.06;;;19.52;67.08
43161;BME280;40968;52.342;5.528;2023-07-13T08:56:05;101549.75;;;19.97;65.79
43161;BME280;40968;52.342;5.528;2023-07-13T08:58:36;101561.41;;;20.07;65.67
43161;BME280;40968;52.342;5.528;2023-07-13T09:01:12;101449.06;;;19.44;64.39
43161;BME280;40968;52.342;5.528;2023-07-13T09:03:50;101526.91;;;19.90;64.28
43161;BME280;40968;52.342;5.528;2023-07-13T09:06:29;101444.03;;;19.31;61.76
43161;BME280;40968;52.342;5.528;2023-07-13T09:09:01;101581.00;;;19.93;65.39
43161;BME280;40968;52.342;5.528;2023-07-13T09:11:45;101570.72;;;19.68;68.44
43161;BME280;40968;52.342;5.528;2023-07-13T09:14:37;101517.59;;;19.02;70.82
43161;BME280;40968;52.342;5.528;2023-07-13T09:17:20;101426.59;;;18.24;70.74
43161;BME280;40968;52.342;5.528;2023-07-13T09:19:54;101590.19;;;19.10;72.21
43161;BME280;40968;52.342;5.528;2023-07-13T09:22:24;101579.38;;;19.00;71.85
43161;BME280;40968;52.342;5.528;2023-07-13T09:24:58;101433.53;;;17.99;70.84
43161;BME280;40968;52.342;5.528;2023-07-13T09:27:30;101563.69;;;18.94;70.75
43161;BME280;40968;52.342;5.528;2023-07-13T09:30:22;101522.88;;;18.76;69.83
43161;BME280;40968;52.342;5.528;2023-07-13T09:32:52;101528.94;;;18.69;68.28
43161;BME280;40968;52.342;5.528;2023-07-13T09:35:24;101533.84;;;18.84;69.86
43161;BME280;40968;52.342;5.528;2023-07-13T09:37:57;101582.28;;;19.16;68.44
43161;BME280;40968;52.342;5.528;2023-07-13T09:40:30;101573.19;;;19.26;69.96
43161;BME280;40968;52.342;5.528;2023-07-13T09:43:02;101573.03;;;19.09;70.43
43161;BME280;40968;52.342;5.528;2023-07-13T09:45:33;101539.41;;;18.82;69.99
43161;BME280;40968;52.342;5.528;2023-07-13T09:48:05;101584.19;;;19.06;71.14
43161;BME280;40968;52.342;5.528;2023-07-13T09:50:34;101469.41;;;18.30;70.02
43161;BME280;40968;52.342;5.528;2023-07-13T09:53:02;101590.50;;;19.07;68.70
43161;BME280;40968;52.342;5.528;2023-07-13T09:55:31;101558.56;;;18.81;69.65
43161;BME280;40968;52.342;5.528;2023-07-13T09:58:03;101606.53;;;19.00;69.40
43161;BME280;40968;52.342;5.528;2023-07-13T10:00:32;101612.25;;;18.97;68.88
43161;BME280;40968;52.342;5.528;2023-07-13T10:03:00;101607.13;;;18.94;68.70
43161;BME280;40968;52.342;5.528;2023-07-13T10:05:38;101326.47;;;17.18;68.83
43161;BME280;40968;52.342;5.528;2023-07-13T10:08:05;101556.44;;;18.47;68.60
43161;BME280;40968;52.342;5.528;2023-07-13T10:10:33;101538.84;;;18.51;69.74
43161;BME280;40968;52.342;5.528;2023-07-13T10:13:02;101616.44;;;19.19;70.10
43161;BME280;40968;52.342;5.528;2023-07-13T10:15:30;101585.63;;;19.10;69.11
43161;BME280;40968;52.342;5.528;2023-07-13T10:17:58;101537.09;;;18.97;68.53
43161;BME280;40968;52.342;5.528;2023-07-13T10:20:26;101475.00;;;18.75;66.37
43161;BME280;40968;52.342;5.528;2023-07-13T10:22:59;101614.34;;;19.95;66.76
43161;BME280;40968;52.342;5.528;2023-07-13T10:25:27;101554.66;;;19.75;67.06
43161;BME280;40968;52.342;5.528;2023-07-13T10:28:02;101578.97;;;19.95;65.73
43161;BME280;40968;52.342;5.528;2023-07-13T10:30:33;101620.31;;;20.16;65.25
43161;BME280;40968;52.342;5.528;2023-07-13T10:33:02;101617.22;;;20.11;68.17
43161;BME280;40968;52.342;5.528;2023-07-13T10:35:30;101624.66;;;19.91;69.00
43161;BME280;40968;52.342;5.528;2023-07-13T10:38:01;101506.50;;;18.95;69.32
43161;BME280;40968;52.342;5.528;2023-07-13T10:40:35;101589.91;;;19.31;69.03
43161;BME280;40968;52.342;5.528;2023-07-13T10:43:06;101622.38;;;19.32;69.22
43161;BME280;40968;52.342;5.528;2023-07-13T10:45:37;101601.50;;;19.05;69.89
43161;BME280;40968;52.342;5.528;2023-07-13T10:48:05;101609.66;;;19.05;70.90
43161;BME280;40968;52.342;5.528;2023-07-13T10:50:37;101603.81;;;19.28;71.62
43161;BME280;40968;52.342;5.528;2023-07-13T10:53:18;101632.13;;;19.71;71.42
43161;BME280;40968;52.342;5.528;2023-07-13T10:55:56;101602.97;;;19.45;70.36
43161;BME280;40968;52.342;5.528;2023-07-13T10:58:29;101562.66;;;19.22;69.82
43161;BME280;40968;52.342;5.528;2023-07-13T11:01:06;101598.69;;;19.25;67.61
43161;BME280;40968;52.342;5.528;2023-07-13T11:03:36;101472.88;;;18.40;66.70
43161;BME280;40968;52.342;5.528;2023-07-13T11:06:09;101651.88;;;19.45;66.32
43161;BME280;40968;52.342;5.528;2023-07-13T11:08:51;101565.69;;;18.92;65.72
43161;BME280;40968;52.342;5.528;2023-07-13T11:11:37;101649.03;;;19.65;65.98
43161;BME280;40968;52.342;5.528;2023-07-13T11:14:14;101596.59;;;19.54;64.69
43161;BME280;40968;52.342;5.528;2023-07-13T11:16:51;101653.97;;;20.15;63.97
43161;BME280;40968;52.342;5.528;2023-07-13T11:19:40;101650.47;;;20.05;60.85
43161;BME280;40968;52.342;5.528;2023-07-13T11:22:22;101412.06;;;18.61;58.99
43161;BME280;40968;52.342;5.528;2023-07-13T11:25:43;101204.69;;;17.26;58.79
43161;BME280;40968;52.342;5.528;2023-07-13T11:28:25;101621.84;;;19.65;59.58
43161;BME280;40968;52.342;5.528;2023-07-13T11:31:13;101644.00;;;19.70;59.27
43161;BME280;40968;52.342;5.528;2023-07-13T11:34:02;101613.06;;;19.53;59.86
43161;BME280;40968;52.342;5.528;2023-07-13T11:36:31;101657.47;;;19.90;57.76
43161;BME280;40968;52.342;5.528;2023-07-13T11:39:05;101660.47;;;20.23;55.26
43161;BME280;40968;52.342;5.528;2023-07-13T11:41:44;101652.97;;;20.16;55.78
43161;BME280;40968;52.342;5.528;2023-07-13T11:44:14;101659.78;;;20.20;56.23
43161;BME280;40968;52.342;5.528;2023-07-13T11:46:45;101660.19;;;20.26;55.89
43161;BME280;40968;52.342;5.528;2023-07-13T11:49:16;101578.81;;;19.78;56.14
43161;BME280;40968;52.342;5.528;2023-07-13T11:51:43;101671.44;;;20.31;56.06
43161;BME280;40968;52.342;5.528;2023-07-13T11:54:20;101670.03;;;20.71;55.43
43161;BME280;40968;52.342;5.528;2023-07-13T11:56:50;101653.16;;;20.94;54.65
43161;BME280;40968;52.342;5.528;2023-07-13T11:59:18;101670.38;;;21.45;54.58
43161;BME280;40968;52.342;5.528;2023-07-13T12:01:48;101667.59;;;21.80;54.22
43161;BME280;40968;52.342;5.528;2023-07-13T12:04:21;101658.59;;;22.04;53.01
43161;BME280;40968;52.342;5.528;2023-07-13T12:06:54;101666.78;;;22.37;49.82
43161;BME280;40968;52.342;5.528;2023-07-13T12:09:21;101642.88;;;22.47;49.79
43161;BME280;40968;52.342;5.528;2023-07-13T12:11:52;101659.94;;;22.41;49.52
43161;BME280;40968;52.342;5.528;2023-07-13T12:14:19;101653.44;;;22.67;49.70
43161;BME280;40968;52.342;5.528;2023-07-13T12:16:50;101458.72;;;21.36;48.64
43161;BME280;40968;52.342;5.528;2023-07-13T12:19:19;101662.69;;;22.49;49.04
43161;BME280;40968;52.342;5.528;2023-07-13T12:21:47;101654.47;;;22.58;47.62
43161;BME280;40968;52.342;5.528;2023-07-13T12:24:15;101669.47;;;22.70;48.27
43161;BME280;40968;52.342;5.528;2023-07-13T12:26:43;101595.09;;;22.35;49.04
43161;BME280;40968;52.342;5.528;2023-07-13T12:29:16;101669.47;;;22.78;47.72
43161;BME280;40968;52.342;5.528;2023-07-13T12:31:44;101573.59;;;22.32;48.16
43161;BME280;40968;52.342;5.528;2023-07-13T12:34:14;101660.13;;;23.12;46.66
43161;BME280;40968;52.342;5.528;2023-07-13T12:36:47;101679.22;;;23.29;45.70
43161;BME280;40968;52.342;5.528;2023-07-13T12:39:17;101674.94;;;23.26;46.09
43161;BME280;40968;52.342;5.528;2023-07-13T12:41:45;101642.44;;;22.92;45.74
43161;BME280;40968;52.342;5.528;2023-07-13T12:44:16;101680.16;;;22.96;45.65
43161;BME280;40968;52.342;5.528;2023-07-13T12:46:58;101674.03;;;22.94;44.85
43161;BME280;40968;52.342;5.528;2023-07-13T12:49:29;101656.00;;;22.60;45.94
43161;BME280;40968;52.342;5.528;2023-07-13T12:52:01;101675.97;;;22.61;46.08
43161;BME280;40968;52.342;5.528;2023-07-13T12:54:30;101673.09;;;22.54;46.51
43161;BME280;40968;52.342;5.528;2023-07-13T12:56:58;101670.19;;;22.47;46.31
43161;BME280;40968;52.342;5.528;2023-07-13T12:59:31;101687.78;;;22.45;45.90
43161;BME280;40968;52.342;5.528;2023-07-13T13:02:02;101605.72;;;22.05;45.99